Time;durP1;ratioP1;P1;durP2;ratioP2;P2;SDS_P1;SDS_P2;PMS_P1;PMS_P2;Temp;Humidity;BMP_temperature;BMP_pressure;BME280_temperature;BME280_humidity;BME280_pressure;Samples;Min_cycle;Max_cycle;Signal;HPM_P1;HPM_P2
2024/01/14 00:00:08;;;;;;;18.35;13.82;;;;;;;1.73;100.00;98611.75;5070676;28;20028;-81
2024/01/14 00:02:34;;;;;;;17.92;13.07;;;;;;;1.68;100.00;98600.75;5070294;28;20177;-81
2024/01/14 00:04:59;;;;;;;18.17;12.77;;;;;;;1.51;100.00;98585.81;5070478;28;20103;-81
2024/01/14 00:07:25;;;;;;;19.48;13.88;;;;;;;1.73;100.00;98610.03;5070194;28;20037;-82
2024/01/14 00:09:50;;;;;;;19.35;13.85;;;;;;;1.53;100.00;98593.50;5070131;28;20186;-81
2024/01/14 00:12:15;;;;;;;17.80;13.43;;;;;;;1.63;100.00;98598.31;5070184;28;20476;-81
2024/01/14 00:14:41;;;;;;;21.35;12.70;;;;;;;1.64;100.00;98610.25;5070084;28;20115;-81
2024/01/14 00:17:18;;;;;;;18.73;13.30;;;;;;;1.69;100.00;98602.47;5070329;28;20016;-81
2024/01/14 00:29:49;;;;;;;18.92;12.65;;;;;;;1.75;100.00;98579.19;5072744;28;20039;-82
2024/01/14 00:32:15;;;;;;;20.77;13.43;;;;;;;1.62;100.00;98555.59;5072887;28;20020;-82
2024/01/14 00:34:40;;;;;;;18.35;12.18;;;;;;;1.60;100.00;98551.38;5072758;28;20040;-81
2024/01/14 00:37:06;;;;;;;17.67;12.05;;;;;;;1.62;100.00;98553.00;5072760;28;20024;-81
2024/01/14 00:39:31;;;;;;;17.85;11.82;;;;;;;1.67;100.00;98553.72;5072202;28;20103;-81
2024/01/14 00:41:57;;;;;;;14.10;10.80;;;;;;;1.71;100.00;98564.75;5072676;28;20153;-81
2024/01/14 00:44:22;;;;;;;15.45;11.25;;;;;;;1.73;100.00;98563.00;5072298;28;20069;-82
2024/01/14 00:46:47;;;;;;;18.85;12.80;;;;;;;1.71;100.00;98552.75;5072554;28;20024;-82
2024/01/14 00:49:13;;;;;;;16.73;11.43;;;;;;;1.60;100.00;98529.13;5072627;28;20044;-82
2024/01/14 00:51:38;;;;;;;19.55;12.40;;;;;;;1.63;100.00;98535.88;5071055;28;20107;-82
2024/01/14 00:54:04;;;;;;;17.75;11.90;;;;;;;1.75;100.00;98556.06;5072802;28;20024;-81
2024/01/14 00:56:29;;;;;;;17.77;11.77;;;;;;;1.73;100.00;98545.03;5071038;28;20021;-81
2024/01/14 00:58:54;;;;;;;17.23;10.80;;;;;;;1.60;100.00;98524.00;5072183;28;20414;-82
2024/01/14 01:01:20;;;;;;;17.15;11.02;;;;;;;1.50;100.00;98500.31;5073335;28;20013;-81
2024/01/14 01:03:45;;;;;;;18.30;11.32;;;;;;;1.79;100.00;98539.69;5076217;28;20031;-81
2024/01/14 01:06:11;;;;;;;16.92;11.77;;;;;;;1.71;100.00;98534.78;5076738;28;20551;-81
2024/01/14 01:08:37;;;;;;;18.27;11.43;;;;;;;1.60;100.00;98495.78;5076171;28;20028;-82
2024/01/14 01:11:02;;;;;;;16.83;11.45;;;;;;;1.78;100.00;98517.50;5075962;28;20357;-81
2024/01/14 01:13:29;;;;;;;16.27;11.40;;;;;;;1.69;100.00;98507.50;5076148;28;20047;-82
2024/01/14 01:15:54;;;;;;;17.67;11.07;;;;;;;1.72;100.00;98510.78;5076351;28;20456;-81
2024/01/14 01:18:19;;;;;;;14.15;10.65;;;;;;;1.73;100.00;98504.78;5074982;28;20055;-82
2024/01/14 01:20:45;;;;;;;17.27;11.82;;;;;;;1.75;100.00;98502.16;5076224;28;20360;-81
2024/01/14 01:23:10;;;;;;;16.10;10.93;;;;;;;1.81;100.00;98513.97;5076050;28;20115;-81
2024/01/14 01:25:36;;;;;;;14.75;11.48;;;;;;;1.63;100.00;98472.56;5075762;28;20031;-81
2024/01/14 01:28:02;;;;;;;19.00;13.23;;;;;;;1.79;100.00;98492.66;5075790;28;20414;-81
2024/01/14 01:30:27;;;;;;;19.15;13.60;;;;;;;1.78;100.00;98484.13;5074458;28;20020;-82
2024/01/14 01:32:53;;;;;;;18.00;13.73;;;;;;;1.63;100.00;98457.16;5076239;28;20079;-81
2024/01/14 01:35:18;;;;;;;19.95;14.68;;;;;;;1.84;100.00;98488.22;5074575;28;20071;-81
2024/01/14 01:37:44;;;;;;;19.35;13.27;;;;;;;1.55;100.00;98441.16;5075868;28;20337;-81
2024/01/14 01:40:11;;;;;;;16.60;12.88;;;;;;;1.79;100.00;98472.94;5075725;28;20031;-82
2024/01/14 01:42:37;;;;;;;18.52;11.80;;;;;;;1.72;100.00;98448.34;5072733;28;20119;-82
2024/01/14 01:45:02;;;;;;;15.00;10.95;;;;;;;1.78;100.00;98465.31;5072966;28;20579;-81
2024/01/14 01:47:28;;;;;;;17.63;12.13;;;;;;;1.68;100.00;98442.47;5056138;28;20090;-81
2024/01/14 01:49:54;;;;;;;20.10;12.55;;;;;;;1.65;100.00;98436.59;5072948;28;20074;-82
2024/01/14 01:52:20;;;;;;;17.58;11.45;;;;;;;1.58;100.00;98427.41;5072966;28;20548;-81
2024/01/14 01:54:47;;;;;;;18.02;11.57;;;;;;;1.63;100.00;98430.66;5072688;28;20032;-81
2024/01/14 01:57:13;;;;;;;23.98;16.38;;;;;;;1.80;100.00;98458.38;5072897;28;20033;-81
2024/01/14 01:59:43;;;;;;;21.35;14.25;;;;;;;1.61;100.00;98429.88;5055625;28;20027;-81
2024/01/14 02:02:09;;;;;;;20.40;13.27;;;;;;;1.61;100.00;98419.63;5072760;28;20025;-82
2024/01/14 02:04:34;;;;;;;21.27;15.38;;;;;;;1.71;100.00;98438.97;5055614;28;20020;-81
2024/01/14 02:07:01;;;;;;;16.33;12.38;;;;;;;1.77;100.00;98443.06;5055665;28;20035;-81
2024/01/14 02:09:28;;;;;;;20.58;14.60;;;;;;;1.74;100.00;98437.16;5055535;28;20048;-81
2024/01/14 02:11:53;;;;;;;20.67;14.43;;;;;;;1.55;100.00;98399.25;5072439;28;20036;-81
2024/01/14 02:14:19;;;;;;;24.50;17.08;;;;;;;1.78;100.00;98440.47;5072658;28;20178;-82
2024/01/14 02:16:44;;;;;;;16.70;11.80;;;;;;;1.64;100.00;98415.22;5055515;28;20028;-81
2024/01/14 02:19:09;;;;;;;19.02;13.18;;;;;;;1.68;100.00;98431.34;5072808;28;20032;-81
2024/01/14 02:21:44;;;;;;;18.58;12.52;;;;;;;1.80;100.00;98436.13;5073541;28;20025;-81
2024/01/14 02:24:29;;;;;;;21.60;14.68;;;;;;;1.83;100.00;98438.59;5073779;28;20036;-81
2024/01/14 02:26:55;;;;;;;20.98;13.52;;;;;;;1.73;100.00;98424.38;5075060;28;20096;-81
2024/01/14 02:29:20;;;;;;;34.67;22.80;;;;;;;1.75;100.00;98412.31;5074836;28;20527;-81
2024/01/14 02:31:46;;;;;;;22.77;15.20;;;;;;;1.74;100.00;98414.06;5074604;28;20032;-81
2024/01/14 02:34:12;;;;;;;22.52;14.30;;;;;;;1.84;100.00;98432.56;5074801;28;20349;-81
2024/01/14 02:36:38;;;;;;;26.55;17.58;;;;;;;1.74;100.00;98419.19;5074605;28;20027;-81
2024/01/14 02:39:04;;;;;;;24.65;14.55;;;;;;;1.87;100.00;98429.09;5074701;28;20025;-81
2024/01/14 02:41:30;;;;;;;15.55;10.95;;;;;;;1.83;100.00;98424.94;5074465;28;20052;-81
2024/01/14 02:43:56;;;;;;;19.00;11.77;;;;;;;1.81;100.00;98417.25;5074537;28;20048;-82
2024/01/14 02:46:21;;;;;;;19.85;13.23;;;;;;;1.79;100.00;98400.25;5074921;28;20061;-81
2024/01/14 02:48:47;;;;;;;20.45;12.65;;;;;;;1.80;100.00;98404.47;5074304;28;20131;-81
2024/01/14 02:51:12;;;;;;;28.80;16.73;;;;;;;1.73;100.00;98394.41;5074340;28;20020;-81
2024/01/14 02:53:37;;;;;;;15.18;11.45;;;;;;;1.61;100.00;98379.41;5074221;28;20429;-81
2024/01/14 02:56:04;;;;;;;13.13;9.73;;;;;;;1.75;100.00;98384.09;5074429;28;20023;-81
2024/01/14 02:58:29;;;;;;;16.02;9.10;;;;;;;1.74;100.00;98385.81;5074032;28;20070;-81
2024/01/14 03:00:55;;;;;;;18.35;12.38;;;;;;;1.81;100.00;98389.00;5074081;28;20025;-81
2024/01/14 03:03:21;;;;;;;19.10;13.45;;;;;;;1.59;100.00;98358.06;5074200;28;20115;-81
2024/01/14 03:05:47;;;;;;;16.23;10.88;;;;;;;1.76;100.00;98385.75;5073954;28;20082;-81
2024/01/14 03:08:13;;;;;;;16.27;11.50;;;;;;;1.72;100.00;98387.56;5073717;28;20456;-81
2024/01/14 03:10:38;;;;;;;13.95;9.82;;;;;;;1.80;100.00;98394.22;5073977;28;20044;-81
2024/01/14 03:13:04;;;;;;;32.03;18.52;;;;;;;1.72;100.00;98386.75;5074048;28;20017;-81
2024/01/14 03:15:30;;;;;;;19.90;13.25;;;;;;;1.61;100.00;98358.03;5074007;28;20024;-81
2024/01/14 03:17:55;;;;;;;12.68;10.00;;;;;;;1.61;100.00;98352.91;5073698;28;20371;-81
2024/01/14 03:20:22;;;;;;;16.08;10.32;;;;;;;1.77;100.00;98386.59;5073859;28;20085;-81
2024/01/14 03:22:48;;;;;;;13.60;9.05;;;;;;;1.59;100.00;98355.47;5073559;28;20025;-81
2024/01/14 03:25:13;;;;;;;20.83;13.50;;;;;;;1.74;100.00;98383.25;5071835;28;20069;-81
2024/01/14 03:27:39;;;;;;;22.77;14.75;;;;;;;1.63;100.00;98358.81;5073307;28;20447;-81
2024/01/14 03:30:05;;;;;;;20.50;11.77;;;;;;;1.57;100.00;98346.19;5073491;28;20025;-81
2024/01/14 03:32:30;;;;;;;22.85;14.73;;;;;;;1.77;100.00;98384.03;5073694;28;20020;-81
2024/01/14 03:34:56;;;;;;;20.63;12.55;;;;;;;1.80;100.00;98387.34;5073435;28;20074;-81
2024/01/14 03:37:21;;;;;;;20.02;11.65;;;;;;;1.70;100.00;98370.56;5073704;28;20012;-81
2024/01/14 03:39:46;;;;;;;14.20;7.82;;;;;;;1.69;100.00;98363.75;5073379;28;20024;-81
2024/01/14 03:42:12;;;;;;;12.15;8.32;;;;;;;1.71;100.00;98365.38;5073289;28;20100;-81
2024/01/14 03:44:37;;;;;;;13.05;7.35;;;;;;;1.75;100.00;98360.97;5073243;28;20027;-81
2024/01/14 03:47:03;;;;;;;12.23;8.40;;;;;;;1.71;100.00;98367.09;5073447;28;20020;-81
2024/01/14 03:49:30;;;;;;;11.20;7.55;;;;;;;1.72;100.00;98364.47;5073036;28;20363;-81
2024/01/14 03:51:55;;;;;;;13.40;9.40;;;;;;;1.82;100.00;98377.88;5071827;28;20028;-81
2024/01/14 03:54:20;;;;;;;13.98;8.32;;;;;;;1.62;100.00;98332.31;5073315;28;20028;-81
2024/01/14 03:56:46;;;;;;;12.10;8.80;;;;;;;1.75;100.00;98356.69;5073021;28;20044;-81
2024/01/14 03:59:11;;;;;;;11.23;8.75;;;;;;;1.73;100.00;98367.91;5073169;28;20020;-81
2024/01/14 04:01:37;;;;;;;15.15;10.18;;;;;;;1.69;100.00;98350.94;5072916;28;20021;-81
2024/01/14 04:04:02;;;;;;;15.20;11.07;;;;;;;1.63;100.00;98348.53;5073021;28;20077;-81
2024/01/14 04:06:28;;;;;;;16.98;11.27;;;;;;;1.61;100.00;98343.47;5072723;28;20344;-82
2024/01/14 04:08:53;;;;;;;12.23;9.27;;;;;;;1.59;100.00;98334.13;5072741;28;20451;-81
2024/01/14 04:11:19;;;;;;;13.13;9.07;;;;;;;1.78;100.00;98365.19;5072764;28;20019;-81
2024/01/14 04:13:44;;;;;;;14.60;9.43;;;;;;;1.64;100.00;98340.78;5072701;28;20060;-81
2024/01/14 04:16:09;;;;;;;11.88;9.45;;;;;;;1.77;100.00;98353.22;5072745;28;20122;-82
2024/01/14 04:18:35;;;;;;;13.60;8.93;;;;;;;1.76;100.00;98357.53;5072659;28;20027;-82
2024/01/14 04:21:00;;;;;;;12.57;8.57;;;;;;;1.54;100.00;98308.59;5073141;28;20086;-82
2024/01/14 04:23:26;;;;;;;12.52;7.55;;;;;;;1.65;100.00;98318.53;5072445;28;20074;-82
2024/01/14 04:25:51;;;;;;;12.65;10.25;;;;;;;1.76;100.00;98334.41;5072784;28;20017;-82
2024/01/14 04:28:17;;;;;;;10.88;8.68;;;;;;;1.69;100.00;98331.22;5071677;28;20456;-82
2024/01/14 04:30:42;;;;;;;10.98;7.70;;;;;;;1.75;100.00;98341.28;5071615;28;20017;-82
2024/01/14 04:33:08;;;;;;;12.48;8.85;;;;;;;1.72;100.00;98320.84;5073125;28;20116;-82
2024/01/14 04:35:33;;;;;;;12.45;9.27;;;;;;;1.65;100.00;98306.56;5073300;28;20420;-82
2024/01/14 04:37:59;;;;;;;10.23;8.10;;;;;;;1.66;100.00;98321.06;5073825;28;20066;-82
2024/01/14 04:40:24;;;;;;;12.48;8.50;;;;;;;1.83;100.00;98348.75;5073212;28;20352;-82
2024/01/14 04:42:50;;;;;;;13.63;8.60;;;;;;;1.80;100.00;98337.72;5073762;28;20021;-82
2024/01/14 04:45:15;;;;;;;12.05;8.40;;;;;;;1.83;100.00;98329.94;5073869;28;20055;-82
2024/01/14 04:47:40;;;;;;;10.38;8.05;;;;;;;1.67;100.00;98303.91;5074239;28;20028;-82
2024/01/14 04:50:06;;;;;;;10.50;7.65;;;;;;;1.80;100.00;98322.34;5083219;28;20025;-81
2024/01/14 04:52:31;;;;;;;10.95;7.60;;;;;;;1.84;100.00;98323.91;5089876;28;20359;-81
2024/01/14 04:54:57;;;;;;;10.70;8.02;;;;;;;1.85;100.00;98318.72;5090449;28;20270;-82
2024/01/14 04:57:22;;;;;;;10.27;7.78;;;;;;;1.82;100.00;98318.00;5085113;28;20083;-82
2024/01/14 04:59:47;;;;;;;10.65;7.85;;;;;;;1.91;100.00;98322.84;5072970;28;20040;-82
2024/01/14 05:02:13;;;;;;;10.95;8.27;;;;;;;1.81;100.00;98309.44;5072638;28;20036;-82
2024/01/14 05:04:38;;;;;;;8.70;6.55;;;;;;;1.88;100.00;98323.75;5072045;28;20024;-82
2024/01/14 05:07:04;;;;;;;10.35;7.50;;;;;;;1.74;100.00;98301.13;5072247;28;20031;-81
2024/01/14 05:09:29;;;;;;;10.65;7.80;;;;;;;1.89;100.00;98332.28;5072263;28;20049;-81
2024/01/14 05:11:55;;;;;;;10.18;7.53;;;;;;;1.74;100.00;98302.84;5072360;28;20184;-82
2024/01/14 05:14:20;;;;;;;8.85;6.60;;;;;;;1.71;100.00;98306.34;5072314;28;20032;-82
2024/01/14 05:16:46;;;;;;;8.85;6.68;;;;;;;1.71;100.00;98311.47;5072062;28;20016;-80
2024/01/14 05:19:11;;;;;;;9.40;6.78;;;;;;;1.90;100.00;98329.69;5072053;28;20111;-81
2024/01/14 05:21:36;;;;;;;8.45;6.63;;;;;;;1.64;100.00;98268.09;5072287;28;20013;-82
2024/01/14 05:24:02;;;;;;;8.43;7.03;;;;;;;1.71;100.00;98272.97;5071900;28;20020;-82
2024/01/14 05:26:27;;;;;;;9.20;6.95;;;;;;;1.71;100.00;98275.53;5072278;28;20027;-82
2024/01/14 05:28:55;;;;;;;8.93;7.38;;;;;;;1.67;100.00;98284.22;5071718;28;20119;-82
2024/01/14 05:31:20;;;;;;;8.15;6.32;;;;;;;1.82;100.00;98312.88;5070867;28;20085;-82
2024/01/14 05:33:45;;;;;;;10.02;7.30;;;;;;;1.82;100.00;98323.97;5071968;28;20028;-82
2024/01/14 05:36:11;;;;;;;8.65;6.93;;;;;;;1.68;100.00;98305.59;5072164;28;20476;-82
2024/01/14 05:38:36;;;;;;;9.27;6.72;;;;;;;1.77;100.00;98313.03;5072167;28;20048;-82
2024/01/14 05:41:02;;;;;;;7.90;6.35;;;;;;;1.73;100.00;98319.97;5071593;28;20019;-81
2024/01/14 05:43:27;;;;;;;8.50;6.70;;;;;;;1.81;100.00;98329.13;5071719;28;20099;-82
2024/01/14 05:45:52;;;;;;;8.35;6.65;;;;;;;1.60;100.00;98287.03;5071834;28;20066;-81
2024/01/14 05:48:19;;;;;;;7.55;6.10;;;;;;;1.66;100.00;98292.00;5072949;28;20032;-82
2024/01/14 05:50:45;;;;;;;9.48;6.93;;;;;;;1.68;100.00;98297.91;5075145;28;20464;-82
2024/01/14 05:53:10;;;;;;;10.05;6.60;;;;;;;1.62;100.00;98293.81;5075282;28;20039;-81
2024/01/14 05:55:35;;;;;;;8.38;6.32;;;;;;;1.73;100.00;98322.53;5075591;28;20513;-82
2024/01/14 05:58:01;;;;;;;8.02;6.07;;;;;;;1.77;100.00;98323.28;5075328;28;20111;-82
2024/01/14 06:00:27;;;;;;;7.20;6.05;;;;;;;1.66;100.00;98305.66;5052681;28;20040;-79
2024/01/14 06:02:52;;;;;;;6.70;5.63;;;;;;;1.59;100.00;98285.38;5035945;28;20480;-82
2024/01/14 06:05:17;;;;;;;8.63;6.90;;;;;;;1.73;100.00;98332.81;5035944;28;20033;-81
2024/01/14 06:07:43;;;;;;;7.95;6.57;;;;;;;1.59;100.00;98286.19;5052436;28;20035;-82
2024/01/14 06:10:09;;;;;;;8.43;6.55;;;;;;;1.61;100.00;98284.44;5052649;28;20049;-81
2024/01/14 06:12:34;;;;;;;14.20;10.90;;;;;;;1.70;100.00;98288.44;5052682;28;20114;-81
2024/01/14 06:14:59;;;;;;;25.17;20.98;;;;;;;1.68;100.00;98278.19;5052321;28;20124;-82
2024/01/14 06:17:25;;;;;;;12.10;10.07;;;;;;;1.74;100.00;98297.72;5052615;28;20021;-82
2024/01/14 06:19:50;;;;;;;10.45;7.95;;;;;;;1.71;100.00;98287.53;5052585;28;20073;-82
2024/01/14 06:22:16;;;;;;;11.77;10.50;;;;;;;1.74;100.00;98285.72;5035696;28;20135;-81
2024/01/14 06:24:44;;;;;;;10.35;7.53;;;;;;;1.63;100.00;98280.06;5052332;28;20032;-82
2024/01/14 06:27:09;;;;;;;10.07;7.35;;;;;;;1.83;100.00;98302.53;5052380;28;20044;-81
2024/01/14 06:29:35;;;;;;;7.90;6.93;;;;;;;1.86;100.00;98314.44;5052307;28;20029;-82
2024/01/14 06:32:00;;;;;;;9.35;8.30;;;;;;;1.74;100.00;98295.97;5062150;28;20364;-82
2024/01/14 06:34:25;;;;;;;9.73;7.95;;;;;;;1.60;100.00;98269.94;5075165;28;20085;-81
2024/01/14 06:36:51;;;;;;;8.75;7.43;;;;;;;1.79;100.00;98303.53;5073273;28;20035;-82
2024/01/14 06:39:17;;;;;;;8.63;7.00;;;;;;;1.73;100.00;98285.78;5074753;28;20031;-81
2024/01/14 06:41:42;;;;;;;9.15;7.90;;;;;;;1.62;100.00;98263.00;5073452;28;20024;-82
2024/01/14 06:44:08;;;;;;;9.07;6.72;;;;;;;1.84;100.00;98298.25;5074382;28;20397;-82
2024/01/14 06:46:33;;;;;;;9.18;6.18;;;;;;;1.80;100.00;98301.78;5074694;28;20021;-82
2024/01/14 06:48:59;;;;;;;11.13;9.18;;;;;;;1.74;100.00;98303.69;5074423;28;20368;-82
2024/01/14 06:51:24;;;;;;;19.20;10.70;;;;;;;1.78;100.00;98317.25;5074509;28;20143;-82
2024/01/14 06:53:49;;;;;;;14.93;9.73;;;;;;;1.60;100.00;98305.00;5072963;28;20081;-82
2024/01/14 06:56:16;;;;;;;11.55;8.25;;;;;;;1.74;100.00;98339.63;5074211;28;20047;-82
2024/01/14 06:58:42;;;;;;;8.38;5.97;;;;;;;1.69;100.00;98320.97;5072176;28;20027;-82
2024/01/14 07:01:07;;;;;;;8.40;6.82;;;;;;;1.62;100.00;98310.94;5072698;28;20095;-82
2024/01/14 07:03:33;;;;;;;12.00;7.72;;;;;;;1.72;100.00;98328.53;5074229;28;20025;-82
2024/01/14 07:05:59;;;;;;;25.70;13.07;;;;;;;1.81;100.00;98335.09;5072857;28;20194;-82
2024/01/14 07:08:25;;;;;;;14.60;8.32;;;;;;;1.75;100.00;98325.06;5074084;28;20478;-82
2024/01/14 07:10:50;;;;;;;28.17;12.48;;;;;;;1.81;100.00;98336.84;5073611;28;20114;-82
2024/01/14 07:13:17;;;;;;;47.15;23.75;;;;;;;1.86;100.00;98353.78;5074184;28;20467;-82
2024/01/14 07:15:43;;;;;;;12.93;9.52;;;;;;;1.72;100.00;98320.00;5074174;28;20539;-82
2024/01/14 07:18:08;;;;;;;13.75;8.95;;;;;;;1.61;100.00;98317.81;5073919;28;20048;-82
2024/01/14 07:20:33;;;;;;;18.05;9.48;;;;;;;1.75;100.00;98332.75;5074211;28;20020;-82
2024/01/14 07:22:59;;;;;;;18.33;10.43;;;;;;;1.70;100.00;98314.94;5073621;28;20100;-82
2024/01/14 07:25:25;;;;;;;17.33;9.80;;;;;;;1.91;100.00;98338.25;5073798;28;20020;-82
2024/01/14 07:27:51;;;;;;;26.67;14.57;;;;;;;1.90;100.00;98354.53;5073643;28;20047;-82
2024/01/14 07:30:18;;;;;;;28.27;14.57;;;;;;;1.71;100.00;98305.50;5073740;28;20020;-82
2024/01/14 07:32:45;;;;;;;33.42;16.27;;;;;;;1.91;100.00;98338.25;5073487;28;20460;-81
2024/01/14 07:35:11;;;;;;;37.83;18.27;;;;;;;1.54;100.00;98288.09;5073411;28;20044;-82
2024/01/14 07:37:37;;;;;;;16.50;7.75;;;;;;;1.62;100.00;98296.38;5073623;28;20021;-82
2024/01/14 07:40:02;;;;;;;17.95;9.63;;;;;;;1.65;100.00;98316.81;5073610;28;20024;-82
2024/01/14 07:42:28;;;;;;;57.30;24.63;;;;;;;1.80;100.00;98351.41;5073563;28;20455;-82
2024/01/14 07:44:53;;;;;;;23.92;12.05;;;;;;;1.88;100.00;98357.13;5073215;28;20059;-82
2024/01/14 07:47:20;;;;;;;23.98;12.27;;;;;;;1.63;100.00;98322.88;5073039;28;20024;-82
2024/01/14 07:49:48;;;;;;;22.13;11.93;;;;;;;1.88;100.00;98352.00;5073384;28;20029;-82
2024/01/14 07:52:16;;;;;;;38.05;16.15;;;;;;;1.77;100.00;98331.00;5073164;28;20106;-82
2024/01/14 07:54:41;;;;;;;15.30;8.73;;;;;;;1.95;100.00;98357.78;5073169;28;20036;-82
2024/01/14 07:57:07;;;;;;;90.10;39.40;;;;;;;1.86;100.00;98351.22;5073078;28;20017;-82
2024/01/14 07:59:32;;;;;;;22.17;10.02;;;;;;;1.84;100.00;98345.28;5073530;28;20028;-82
2024/01/14 08:01:57;;;;;;;24.05;12.15;;;;;;;1.95;100.00;98365.50;5071778;28;20031;-82
2024/01/14 08:04:23;;;;;;;9.63;5.75;;;;;;;1.96;100.00;98357.72;5073187;28;20115;-81
2024/01/14 08:06:48;;;;;;;19.63;9.63;;;;;;;1.88;100.00;98348.59;5072984;28;20028;-82
2024/01/14 08:09:14;;;;;;;24.50;11.57;;;;;;;1.97;100.00;98363.69;5072776;28;20040;-82
2024/01/14 08:11:39;;;;;;;16.50;8.80;;;;;;;1.93;100.00;98375.78;5072936;28;20020;-82
2024/01/14 08:14:05;;;;;;;18.55;8.85;;;;;;;1.79;100.00;98349.72;5072843;28;20024;-82
2024/01/14 08:16:30;;;;;;;33.40;15.63;;;;;;;1.87;100.00;98363.16;5073585;28;20101;-81
2024/01/14 08:18:56;;;;;;;10.40;6.13;;;;;;;1.77;100.00;98337.81;5072822;28;20026;-82
2024/01/14 08:21:21;;;;;;;14.80;7.28;;;;;;;1.93;100.00;98360.38;5072975;28;20367;-81
2024/01/14 08:23:52;;;;;;;28.25;24.42;;;;;;;2.10;100.00;98388.09;5073115;28;20036;-81
2024/01/14 08:26:18;;;;;;;8.57;6.40;;;;;;;1.94;100.00;98367.22;5073852;28;20082;-81
2024/01/14 08:28:43;;;;;;;20.80;13.35;;;;;;;2.11;100.00;98383.81;5073072;28;20447;-82
2024/01/14 08:31:09;;;;;;;11.55;6.78;;;;;;;1.99;100.00;98361.94;5072667;28;20047;-82
2024/01/14 08:33:34;;;;;;;16.02;10.45;;;;;;;2.10;100.00;98395.78;5073255;28;20455;-81
2024/01/14 08:35:59;;;;;;;12.98;7.95;;;;;;;2.00;100.00;98371.31;5071560;28;20437;-81
2024/01/14 08:38:25;;;;;;;26.27;15.07;;;;;;;1.98;100.00;98362.81;5072448;28;20024;-82
2024/01/14 08:40:51;;;;;;;31.33;16.83;;;;;;;2.22;100.00;98392.81;5072620;28;20115;-82
2024/01/14 08:43:18;;;;;;;22.40;12.40;;;;;;;2.25;100.00;98390.16;5073420;28;20070;-80
2024/01/14 08:45:43;;;;;;;46.63;25.48;;;;;;;2.23;100.00;98394.53;5073288;28;20020;-83
2024/01/14 08:48:13;;;;;;;25.50;13.00;;;;;;;2.22;100.00;98390.25;5072827;28;20028;-83
2024/01/14 08:50:39;;;;;;;25.83;11.65;;;;;;;2.35;100.00;98407.84;5073042;28;20080;-82
2024/01/14 08:53:04;;;;;;;22.30;10.00;;;;;;;2.24;100.00;98403.91;5072550;28;20112;-82
2024/01/14 08:55:31;;;;;;;24.50;11.50;;;;;;;2.12;100.00;98388.91;5071103;28;20017;-81
2024/01/14 08:57:57;;;;;;;38.10;17.05;;;;;;;2.25;100.00;98410.72;5072369;28;20107;-82
2024/01/14 09:00:23;;;;;;;20.08;9.73;;;;;;;2.15;100.00;98398.22;5070920;28;20040;-82
2024/01/14 09:02:49;;;;;;;15.95;7.85;;;;;;;2.32;100.00;98416.50;5090237;28;20028;-82
2024/01/14 09:05:34;;;;;;;53.33;22.30;;;;;;;2.08;100.00;98377.03;5050079;28;20388;-82
2024/01/14 09:08:03;;;;;;;19.83;9.25;;;;;;;2.29;100.00;98426.88;5050665;28;20036;-82
2024/01/14 09:10:28;;;;;;;26.20;10.13;;;;;;;2.32;100.00;98423.34;5050010;28;20045;-82
2024/01/14 09:12:54;;;;;;;22.30;8.48;;;;;;;2.23;100.00;98402.25;5032764;28;20033;-82
2024/01/14 09:15:20;;;;;;;20.95;10.05;;;;;;;2.23;100.00;98393.66;5009535;28;20037;-82
2024/01/14 09:17:47;;;;;;;10.20;5.57;;;;;;;2.31;100.00;98412.22;5009779;28;20105;-82
2024/01/14 09:20:17;;;;;;;10.77;6.25;;;;;;;2.29;100.00;98405.47;5009478;28;20037;-82
2024/01/14 09:22:42;;;;;;;49.33;20.23;;;;;;;2.38;100.00;98412.88;5011275;28;20405;-82
2024/01/14 09:25:08;;;;;;;10.57;5.47;;;;;;;2.28;100.00;98386.66;5013646;28;20044;-82
2024/01/14 09:27:34;;;;;;;26.27;11.80;;;;;;;2.42;100.00;98406.75;5013928;28;20374;-81
2024/01/14 09:30:00;;;;;;;36.35;15.82;;;;;;;2.51;100.00;98419.28;5013264;28;20120;-81
2024/01/14 09:32:29;;;;;;;16.65;7.75;;;;;;;2.48;100.00;98421.94;4980656;28;20041;-82
2024/01/14 09:34:56;;;;;;;50.63;22.20;;;;;;;2.55;100.00;98408.00;5013509;28;20366;-82
2024/01/14 09:37:24;;;;;;;45.65;19.92;;;;;;;2.57;100.00;98415.66;5046236;28;20108;-82
2024/01/14 09:39:50;;;;;;;15.60;8.35;;;;;;;2.58;100.00;98414.78;5040157;28;20042;-82
2024/01/14 09:42:50;;;;;;;20.52;10.52;;;;;;;2.47;100.00;98407.44;5013119;28;20037;-82
2024/01/14 09:45:16;;;;;;;74.43;32.35;;;;;;;2.49;100.00;98405.66;4958432;28;20558;-81
2024/01/14 09:47:53;;;;;;;40.30;18.77;;;;;;;2.38;100.00;98379.47;5013227;28;20041;-84
2024/01/14 09:50:41;;;;;;;42.40;21.90;;;;;;;2.46;100.00;98395.47;5013265;28;20185;-86
2024/01/14 09:53:12;;;;;;;88.90;52.42;;;;;;;2.47;100.00;98399.72;4993306;28;20065;-87
2024/01/14 09:55:58;;;;;;;14.20;7.88;;;;;;;2.57;100.00;98408.81;4993497;28;20034;-85
2024/01/14 09:58:34;;;;;;;6.32;4.30;;;;;;;2.42;100.00;98374.19;4993547;28;20085;-84
2024/01/14 10:01:14;;;;;;;5.78;4.35;;;;;;;2.59;100.00;98395.91;4960756;28;20237;-84
2024/01/14 10:03:45;;;;;;;20.50;8.15;;;;;;;2.58;100.00;98397.63;4961303;28;20040;-84
2024/01/14 10:06:17;;;;;;;14.13;7.95;;;;;;;2.45;100.00;98373.25;4993098;28;20385;-84
2024/01/14 10:08:43;;;;;;;4.80;3.90;;;;;;;2.41;100.00;98371.69;4993374;28;20034;-85
2024/01/14 10:11:10;;;;;;;6.93;5.78;;;;;;;2.57;100.00;98393.41;5005253;28;20132;-83
2024/01/14 10:13:48;;;;;;;12.35;8.00;;;;;;;2.32;100.00;98339.44;5012976;28;20121;-86
2024/01/14 10:16:16;;;;;;;19.42;13.18;;;;;;;2.58;100.00;98381.38;5010442;28;20034;-85
2024/01/14 10:18:41;;;;;;;12.25;8.07;;;;;;;2.56;100.00;98378.84;5010083;28;20042;-84
2024/01/14 10:21:07;;;;;;;6.22;5.13;;;;;;;2.46;100.00;98344.09;5049394;28;20028;-85
2024/01/14 10:23:55;;;;;;;8.07;6.80;;;;;;;2.66;100.00;98374.25;5072242;28;20476;-85
2024/01/14 10:26:27;;;;;;;9.73;7.00;;;;;;;2.55;100.00;98351.47;5032026;28;20052;-85
2024/01/14 10:28:52;;;;;;;;;;;;;;;2.70;100.00;98379.22;5032953;28;20033;-85
2024/01/14 10:31:19;;;;;;;8.63;6.38;;;;;;;2.48;100.00;98332.84;5048497;28;20003;-85
2024/01/14 10:33:54;;;;;;;14.68;10.90;;;;;;;2.72;100.00;98361.16;5018833;28;20041;-85
2024/01/14 10:36:29;;;;;;;11.13;9.15;;;;;;;2.47;100.00;98317.47;5035313;28;20165;-83
2024/01/14 10:39:03;;;;;;;8.05;4.93;;;;;;;2.66;100.00;98341.66;5052139;28;20028;-83
2024/01/14 10:41:44;;;;;;;7.28;5.55;;;;;;;2.77;100.00;98343.81;5026095;28;20033;-84
2024/01/14 10:44:12;;;;;;;13.07;7.30;;;;;;;2.74;100.00;98346.53;5012213;28;20038;-84
2024/01/14 10:46:43;;;;;;;21.27;12.25;;;;;;;2.83;100.00;98351.34;5012695;28;20036;-85
2024/01/14 10:49:10;;;;;;;15.20;9.20;;;;;;;2.73;100.00;98325.09;5012491;28;20030;-85
2024/01/14 10:51:43;;;;;;;11.00;6.78;;;;;;;2.86;100.00;98352.94;5012570;28;20485;-85
2024/01/14 10:54:25;;;;;;;14.32;7.15;;;;;;;2.93;100.00;98359.56;5008320;28;20081;-85
2024/01/14 10:57:29;;;;;;;6.32;4.95;;;;;;;2.84;100.00;98336.75;4993145;28;20109;-86
2024/01/14 10:59:57;;;;;;;10.13;5.60;;;;;;;2.91;100.00;98349.31;4977540;28;20378;-84
2024/01/14 11:02:31;;;;;;;9.60;4.88;;;;;;;2.93;100.00;98346.69;4977379;28;20034;-84
2024/01/14 11:04:57;;;;;;;9.73;5.13;;;;;;;2.62;100.00;98296.38;4994352;28;20034;-87
2024/01/14 11:07:23;;;;;;;6.63;4.88;;;;;;;2.78;100.00;98322.34;4995082;28;20045;-84
2024/01/14 11:09:57;;;;;;;10.68;5.43;;;;;;;2.82;100.00;98326.50;5001930;28;20103;-85
2024/01/14 11:12:52;;;;;;;10.30;5.38;;;;;;;2.96;100.00;98346.59;5014087;28;20089;-85
2024/01/14 11:15:36;;;;;;;73.80;48.15;;;;;;;2.98;100.00;98349.94;5065865;28;20479;-82
2024/01/14 11:18:12;;;;;;;9.88;5.15;;;;;;;2.99;100.00;98338.72;5078717;28;20538;-86
2024/01/14 11:20:49;;;;;;;17.27;9.48;;;;;;;2.97;100.00;98322.53;5071866;28;20032;-84
2024/01/14 11:23:24;;;;;;;15.75;10.10;;;;;;;3.07;100.00;98318.72;5038153;28;20111;-84
2024/01/14 11:25:59;;;;;;;20.63;14.75;;;;;;;3.03;100.00;98298.31;5071454;28;20057;-85
2024/01/14 11:28:32;;;;;;;10.20;7.32;;;;;;;3.19;100.00;98313.09;5054179;28;20441;-85
2024/01/14 11:31:19;;;;;;;8.10;5.75;;;;;;;3.25;100.00;98305.16;5070958;28;20198;-84